NK31 weather

Dawn Patrol Aviation Airport
Albion, New York, United States

Public forecast

Using degrees Fahrenheit for public forecast. Weather courtesy of forecast.io.

Closest aviation weather report (METAR) to Dawn Patrol Aviation Airport

Closest report is Greater Rochester International Airport, 22.6 nm (41.8 km) ESE. Retrieved 2020/07/07 18:54 UTC (28 minutes ago):

KROC 071854Z 30006KT 10SM FEW070 34/16 A2996 RMK AO2 SLP143 T03390156

Closest aviation forecast (TAF) to Dawn Patrol Aviation Airport

Closest forecast is Greater Rochester International Airport, 22.6 nm (41.8 km) ESE. Retrieved 2020/07/07 18:39 UTC (43 minutes ago):

TAF KROC 071736Z 0718/0818 VRB04KT P6SM SCT050 SCT250 TEMPO 0720/0723 05008KT FM080000 22004KT P6SM SCT250 FM081000 22006KT P6SM BKN100 FM081500 27006KT P6SM SCT060